Terminal Aerodrome Forecast
Issued by NWS

Home | Current Version | Previous Version | Text Only | Print | Product List | Glossary On
Versions: 1 2 3 4 5 6 7 8 9 10 11 12 13 14 15
583
FTUS44 KEPZ 252350
TAFLRU
TAF
KLRU 252350Z 2600/2624 25015G20KT P6SM FEW150 SCT250
     FM260300 28010KT P6SM SCT250
     FM262000 22025G35KT 4SM BLDU SCT250=

USA.gov is the U.S. government's official web portal to all federal, state and local government web resources and services.